Ubc Bremen — P3ZA7 — position and weather

sailwx.info

Track history (hours):
 
Tides and Currents Weather Stations Pressure Air Temp Water Temp Dewpoint Dewpoint Depression Visibility Wind Speed Wind Dir Waves Ship Positions

Ubc Bremen

Last reported at 2015-Jun-16 05:33 UTC. Time now 2015-Jul-04 01:38 UTC.
Position N 29°46' W 090°02'.
Warning: this ship's position is 17 days out of date.

Length 154 m; draft 8.8 m.

Type: Cargo ship. MMSI: 21260200.

Date/timePositionNaut miles runAvg speedWind from/ knotsBaromVisibWave heightAir tempDewpointWater temp
2015-Jun-16 05:33N 29°46' W 090°02'1110.8
2015-Jun-16 04:33N 29°55' W 089°55'11 9.9
2015-Jun-16 03:24N 29°55' W 090°08'  
2015-Jun-10 10:11N 29°58' W 090°16'0 0.0
2015-Jun-10 07:22N 29°58' W 090°16'3 0.5
2015-Jun-10 00:14N 29°56' W 090°13'4 5.6
2015-Jun-09 23:28N 29°55' W 090°08'7 6.6
2015-Jun-09 22:29N 29°57' W 090°01'0 0.0
2015-Jun-09 18:14N 29°57' W 090°01'0 0.0
2015-Jun-09 17:14N 29°57' W 090°01'0 0.0
2015-Jun-09 14:30N 29°57' W 090°01'0 0.0
2015-Jun-09 13:33N 29°57' W 090°01'0 0.0
2015-Jun-08 12:31N 29°57' W 090°01'0 0.0
2015-Jun-08 08:04N 29°57' W 090°01'1 2.6
2015-Jun-08 07:30N 29°56' W 089°59'5 3.9
2015-Jun-08 06:21N 29°51' W 089°59'  
Track history (hours):
 
Tides and Currents Weather Stations Pressure Air Temp Water Temp Dewpoint Dewpoint Depression Visibility Wind Speed Wind Dir Waves Ship Positions

Ubc Bremen

Last reported at 2015-Jun-16 05:33 UTC. Time now 2015-Jul-04 01:38 UTC.
Position N 29°46' W 090°02'.
Warning: this ship's position is 17 days out of date.

Length 154 m; draft 8.8 m.

Type: Cargo ship. MMSI: 21260200.

Date/timePositionNaut miles runAvg speedWind from/ knotsBaromVisibWave heightAir tempDewpointWater temp
2015-Jun-16 05:33N 29°46' W 090°02'1110.8
2015-Jun-16 04:33N 29°55' W 089°55'11 9.9
2015-Jun-16 03:24N 29°55' W 090°08'  
2015-Jun-10 10:11N 29°58' W 090°16'0 0.0
2015-Jun-10 07:22N 29°58' W 090°16'3 0.5
2015-Jun-10 00:14N 29°56' W 090°13'4 5.6
2015-Jun-09 23:28N 29°55' W 090°08'7 6.6
2015-Jun-09 22:29N 29°57' W 090°01'0 0.0
2015-Jun-09 18:14N 29°57' W 090°01'0 0.0
2015-Jun-09 17:14N 29°57' W 090°01'0 0.0
2015-Jun-09 14:30N 29°57' W 090°01'0 0.0
2015-Jun-09 13:33N 29°57' W 090°01'0 0.0
2015-Jun-08 12:31N 29°57' W 090°01'0 0.0
2015-Jun-08 08:04N 29°57' W 090°01'1 2.6
2015-Jun-08 07:30N 29°56' W 089°59'5 3.9
2015-Jun-08 06:21N 29°51' W 089°59'  

Dump ship's entire track history